Time;durP1;ratioP1;P1;durP2;ratioP2;P2;SDS_P1;SDS_P2;PMS_P1;PMS_P2;Temp;Humidity;BMP_temperature;BMP_pressure;BME280_temperature;BME280_humidity;BME280_pressure;Samples;Min_cycle;Max_cycle;Signal;HPM_P1;HPM_P2
2023/11/10 00:02:02;;;;;;;12.13;6.20;;;;;;;4.42;100.00;100310.38;1435770;91;21392;-85
2023/11/10 00:04:27;;;;;;;14.77;6.17;;;;;;;4.45;100.00;100307.54;1441121;90;21473;-87
2023/11/10 00:06:53;;;;;;;13.77;6.20;;;;;;;4.46;100.00;100303.98;1435984;90;21562;-87
2023/11/10 00:09:20;;;;;;;11.67;6.90;;;;;;;4.45;100.00;100307.54;1437586;91;22338;-87
2023/11/10 00:11:46;;;;;;;12.50;7.00;;;;;;;4.43;100.00;100303.35;1436837;91;21355;-87
2023/11/10 00:14:12;;;;;;;14.07;6.30;;;;;;;4.37;100.00;100299.39;1438942;91;21584;-88
2023/11/10 00:16:43;;;;;;;13.90;6.57;;;;;;;4.33;100.00;100300.57;1439116;91;21429;-85
2023/11/10 00:19:09;;;;;;;9.28;6.25;;;;;;;4.29;100.00;100290.80;1439469;91;21436;-88
2023/11/10 00:21:36;;;;;;;12.07;6.13;;;;;;;4.30;100.00;100296.86;1441228;91;21430;-87
2023/11/10 00:24:05;;;;;;;12.10;6.80;;;;;;;4.28;100.00;100293.51;1410730;91;22463;-85
2023/11/10 00:26:33;;;;;;;11.57;6.50;;;;;;;4.32;100.00;100292.36;1443318;90;22272;-88
2023/11/10 00:28:59;;;;;;;14.63;6.97;;;;;;;4.36;100.00;100293.80;1439724;91;21443;-86
2023/11/10 00:31:27;;;;;;;8.90;6.03;;;;;;;4.40;100.00;100289.16;1431757;91;22401;-88
2023/11/10 00:33:53;;;;;;;12.97;6.80;;;;;;;4.41;100.00;100294.30;1441929;90;21443;-86
2023/11/10 00:36:21;;;;;;;10.50;6.23;;;;;;;4.44;100.00;100286.22;1441439;91;22592;-84
2023/11/10 00:38:47;;;;;;;10.63;6.63;;;;;;;4.45;100.00;100290.50;1428990;91;21502;-87
2023/11/10 00:41:15;;;;;;;9.20;6.50;;;;;;;4.46;100.00;100280.41;1435940;91;22485;-88
2023/11/10 00:43:41;;;;;;;11.17;6.20;;;;;;;4.44;100.00;100282.29;1428132;90;21437;-86
2023/11/10 00:46:07;;;;;;;11.13;6.73;;;;;;;4.44;100.00;100280.98;1431087;91;21519;-88
2023/11/10 00:48:34;;;;;;;9.40;6.33;;;;;;;4.44;100.00;100271.80;1437988;91;21503;-88
2023/11/10 00:51:01;;;;;;;12.53;6.27;;;;;;;4.43;100.00;100266.22;1436116;90;21621;-86
2023/11/10 00:53:27;;;;;;;10.67;6.40;;;;;;;4.42;100.00;100263.69;1436946;90;21407;-86
2023/11/10 00:56:18;;;;;;;14.93;6.20;;;;;;;4.41;100.00;100265.48;1432549;91;21385;-85
2023/11/10 01:02:45;;;;;;;10.03;5.20;;;;;;;4.39;100.00;100262.12;1429697;91;21407;-87
2023/11/10 01:05:14;;;;;;;14.00;7.20;;;;;;;4.26;100.00;100255.65;1435983;91;22800;-86
2023/11/10 01:07:40;;;;;;;8.47;5.33;;;;;;;4.26;100.00;100255.65;1437251;91;21421;-85
2023/11/10 01:10:08;;;;;;;11.60;6.13;;;;;;;4.27;100.00;100258.62;1431920;90;21517;-87
2023/11/10 01:12:34;;;;;;;14.93;6.77;;;;;;;4.25;100.00;100252.64;1429098;91;21584;-87
2023/11/10 01:15:01;;;;;;;10.70;6.53;;;;;;;4.23;100.00;100252.39;1409869;91;21487;-87
2023/11/10 01:17:27;;;;;;;14.83;6.63;;;;;;;4.21;100.00;100250.37;1431638;91;21391;-86
2023/11/10 01:19:54;;;;;;;11.83;6.03;;;;;;;4.19;100.00;100243.09;1426582;91;21473;-87
2023/11/10 01:22:20;;;;;;;16.10;6.10;;;;;;;4.20;100.00;100246.06;1426292;90;21547;-88
2023/11/10 01:24:46;;;;;;;9.97;5.17;;;;;;;4.19;100.00;100244.41;1436640;91;21452;-86
2023/11/10 01:27:12;;;;;;;10.63;6.43;;;;;;;4.18;100.00;100236.20;1429774;91;22316;-86
2023/11/10 01:29:38;;;;;;;12.97;7.20;;;;;;;4.15;100.00;100227.25;1433702;91;21392;-87
2023/11/10 01:32:05;;;;;;;12.53;5.60;;;;;;;4.10;100.00;100231.98;1439327;91;21406;-87
2023/11/10 01:34:32;;;;;;;13.43;6.23;;;;;;;4.05;100.00;100231.82;1431586;91;21428;-87
2023/11/10 01:36:58;;;;;;;12.67;7.43;;;;;;;4.02;100.00;100228.11;1435789;90;22538;-86
2023/11/10 01:39:24;;;;;;;10.63;5.70;;;;;;;4.00;100.00;100228.72;1398118;91;21407;-87
2023/11/10 01:41:50;;;;;;;13.70;5.87;;;;;;;3.98;100.00;100233.22;1434759;90;21392;-87
2023/11/10 01:44:17;;;;;;;12.47;5.40;;;;;;;3.99;100.00;100229.64;1433170;91;21620;-84
2023/11/10 01:46:46;;;;;;;11.97;5.87;;;;;;;3.98;100.00;100221.44;1440231;90;21444;-87
2023/11/10 01:49:18;;;;;;;13.07;5.53;;;;;;;3.99;100.00;100223.58;1432360;90;21370;-84
2023/11/10 01:51:45;;;;;;;10.10;6.30;;;;;;;3.97;100.00;100226.77;1435279;90;21481;-85
2023/11/10 01:54:16;;;;;;;11.43;5.37;;;;;;;3.93;100.00;100224.86;1436264;91;22539;-86
2023/11/10 01:56:42;;;;;;;10.30;4.97;;;;;;;3.90;100.00;100217.22;1430432;91;21497;-83
2023/11/10 01:59:13;;;;;;;10.80;5.73;;;;;;;3.86;100.00;100214.47;1435329;91;21458;-83
2023/11/10 02:01:40;;;;;;;14.00;5.53;;;;;;;3.80;100.00;100205.27;1437267;90;21362;-83
2023/11/10 02:04:13;;;;;;;8.73;4.50;;;;;;;3.77;100.00;100208.56;1432388;91;21599;-86
2023/11/10 02:06:45;;;;;;;10.43;4.67;;;;;;;3.73;100.00;100213.66;1440832;91;21524;-85
2023/11/10 02:09:12;;;;;;;9.30;4.80;;;;;;;3.71;100.00;100216.85;1431955;91;21405;-84
2023/11/10 02:11:38;;;;;;;8.83;4.87;;;;;;;3.65;100.00;100211.58;1414218;91;22324;-86
2023/11/10 02:14:08;;;;;;;9.03;4.90;;;;;;;3.58;100.00;100214.28;1434393;91;21377;-85
2023/11/10 02:16:36;;;;;;;11.27;4.87;;;;;;;3.53;100.00;100202.81;1430653;91;21340;-85
2023/11/10 02:19:05;;;;;;;12.03;5.33;;;;;;;3.51;100.00;100198.62;1433910;91;22525;-85
2023/11/10 02:21:31;;;;;;;11.30;4.87;;;;;;;3.48;100.00;100201.02;1434699;90;21513;-83
2023/11/10 02:24:02;;;;;;;9.47;4.50;;;;;;;3.48;100.00;100201.02;1439583;91;21393;-85
2023/11/10 02:26:28;;;;;;;13.35;5.53;;;;;;;3.41;100.00;100198.45;1428897;90;22390;-83
2023/11/10 02:28:54;;;;;;;9.97;4.83;;;;;;;3.34;100.00;100196.74;1430104;91;21362;-87
2023/11/10 02:31:21;;;;;;;12.47;6.77;;;;;;;3.28;100.00;100201.55;1437473;91;22331;-86
2023/11/10 02:33:47;;;;;;;10.33;5.20;;;;;;;3.24;100.00;100211.86;1434712;90;22222;-86
2023/11/10 02:36:14;;;;;;;8.50;4.73;;;;;;;3.20;100.00;100203.88;1443330;90;23187;-83
2023/11/10 02:38:42;;;;;;;10.43;5.93;;;;;;;3.15;100.00;100207.63;1432710;91;22187;-85
2023/11/10 02:41:09;;;;;;;8.47;4.73;;;;;;;3.12;100.00;100204.39;1438947;90;22183;-85
2023/11/10 02:43:35;;;;;;;10.37;5.00;;;;;;;3.09;100.00;100205.44;1439190;91;22116;-84
2023/11/10 02:46:02;;;;;;;7.97;4.67;;;;;;;3.07;100.00;100208.62;1418221;91;23150;-84
2023/11/10 02:48:29;;;;;;;8.20;5.00;;;;;;;3.04;100.00;100208.83;1439165;91;22064;-91
2023/11/10 02:50:56;;;;;;;7.70;5.10;;;;;;;2.99;100.00;100221.38;1440564;91;22791;-90
2023/11/10 02:53:22;;;;;;;11.60;6.07;;;;;;;2.89;100.00;100212.50;1439425;90;22300;-89
2023/11/10 02:55:48;;;;;;;12.67;4.83;;;;;;;2.80;100.00;100218.35;1432759;89;23030;-87
2023/11/10 02:58:16;;;;;;;8.00;5.00;;;;;;;2.73;100.00;100219.21;1430913;91;22203;-90
2023/11/10 03:00:43;;;;;;;9.67;5.03;;;;;;;2.67;100.00;100215.70;1420453;91;23150;-90
2023/11/10 03:03:11;;;;;;;9.37;6.00;;;;;;;2.65;100.00;100215.82;1432618;91;22093;-86
2023/11/10 03:05:39;;;;;;;12.03;5.67;;;;;;;2.62;100.00;100210.80;1438238;91;22271;-86
2023/11/10 03:08:07;;;;;;;9.97;5.07;;;;;;;2.62;100.00;100204.27;1432302;91;22227;-85
2023/11/10 03:10:33;;;;;;;12.87;5.20;;;;;;;2.62;100.00;100199.05;1442376;90;22293;-86
2023/11/10 03:13:00;;;;;;;7.23;5.10;;;;;;;2.56;100.00;100203.37;1434780;91;22079;-87
2023/11/10 03:15:27;;;;;;;9.40;6.13;;;;;;;2.49;100.00;100203.40;1427783;90;23226;-89
2023/11/10 03:17:57;;;;;;;12.90;5.80;;;;;;;2.43;100.00;100189.44;1433962;90;22130;-86
2023/11/10 03:20:24;;;;;;;11.27;5.23;;;;;;;2.35;100.00;100180.80;1417640;91;23121;-85
2023/11/10 03:22:51;;;;;;;11.30;5.07;;;;;;;2.34;100.00;100189.58;1437886;91;22292;-86
2023/11/10 03:25:17;;;;;;;10.37;4.50;;;;;;;2.26;100.00;100182.70;1438366;91;22138;-82
2023/11/10 03:27:43;;;;;;;8.43;5.37;;;;;;;2.26;100.00;100182.70;1438163;90;22033;-85
2023/11/10 03:30:11;;;;;;;14.03;5.13;;;;;;;2.23;100.00;100185.52;1417600;91;22089;-87
2023/11/10 03:32:37;;;;;;;10.27;4.50;;;;;;;2.25;100.00;100170.13;1437813;90;21897;-87
2023/11/10 03:35:06;;;;;;;8.47;5.03;;;;;;;2.30;100.00;100166.36;1436497;91;22059;-86
2023/11/10 03:37:32;;;;;;;8.53;4.37;;;;;;;2.30;100.00;100155.91;1430359;91;22145;-86
2023/11/10 03:39:58;;;;;;;10.37;4.70;;;;;;;2.30;100.00;100155.91;1429595;91;22310;-86
2023/11/10 03:42:25;;;;;;;10.37;5.67;;;;;;;2.24;100.00;100148.02;1433127;91;21948;-86
2023/11/10 03:44:51;;;;;;;10.70;4.80;;;;;;;2.28;100.00;100157.81;1441307;91;22931;-83
2023/11/10 03:47:19;;;;;;;8.07;4.93;;;;;;;2.21;100.00;100151.66;1433010;90;23136;-85
2023/11/10 03:49:45;;;;;;;9.50;5.00;;;;;;;2.21;100.00;100151.66;1437274;90;22167;-85
2023/11/10 03:52:11;;;;;;;9.50;5.37;;;;;;;2.17;100.00;100150.20;1417608;91;21941;-86
2023/11/10 03:54:38;;;;;;;10.03;5.90;;;;;;;2.16;100.00;100145.09;1430946;91;21860;-87
2023/11/10 03:57:04;;;;;;;14.57;6.83;;;;;;;2.09;100.00;100126.37;1427928;91;23179;-86
2023/11/10 03:59:31;;;;;;;9.27;5.37;;;;;;;2.07;100.00;100136.06;1443725;91;22292;-86
2023/11/10 04:01:57;;;;;;;9.37;4.97;;;;;;;2.07;100.00;100136.06;1437285;90;22666;-87
2023/11/10 04:04:23;;;;;;;7.47;4.77;;;;;;;2.03;100.00;100137.22;1436939;91;21858;-89
2023/11/10 04:06:50;;;;;;;11.30;4.93;;;;;;;2.04;100.00;100128.44;1440032;91;22255;-88
2023/11/10 04:09:17;;;;;;;9.30;5.43;;;;;;;2.04;100.00;100128.44;1439757;90;22789;-88
2023/11/10 04:11:44;;;;;;;8.00;5.27;;;;;;;2.07;100.00;100130.02;1434103;90;21945;-87
2023/11/10 04:14:12;;;;;;;10.27;4.67;;;;;;;2.12;100.00;100134.00;1434398;90;22848;-88
2023/11/10 04:16:38;;;;;;;9.97;5.43;;;;;;;2.07;100.00;100130.84;1435288;90;21971;-89
2023/11/10 04:19:04;;;;;;;9.10;5.10;;;;;;;2.07;100.00;100130.84;1431602;91;22352;-88
2023/11/10 04:21:34;;;;;;;9.97;4.97;;;;;;;2.01;100.00;100144.30;1429826;91;22847;-88
2023/11/10 04:24:01;;;;;;;9.00;5.03;;;;;;;1.87;100.00;100140.44;1430698;91;22247;-89
2023/11/10 04:26:27;;;;;;;9.17;4.90;;;;;;;1.71;100.00;100144.05;1428700;91;21730;-85
2023/11/10 04:28:54;;;;;;;8.07;5.40;;;;;;;1.64;100.00;100143.22;1436862;90;23002;-85
2023/11/10 04:31:20;;;;;;;8.40;4.77;;;;;;;1.61;100.00;100137.73;1439112;90;22278;-89
2023/11/10 04:33:46;;;;;;;16.90;6.37;;;;;;;1.64;100.00;100127.12;1413510;91;22465;-89
2023/11/10 04:36:13;;;;;;;11.67;5.03;;;;;;;1.77;100.00;100124.08;1425493;91;21817;-88
2023/11/10 04:38:48;;;;;;;10.70;5.13;;;;;;;1.77;100.00;100124.08;1441505;90;23095;-86
2023/11/10 04:41:16;;;;;;;9.30;5.17;;;;;;;1.70;100.00;100124.12;1437147;91;21944;-89
2023/11/10 04:43:43;;;;;;;14.03;6.33;;;;;;;1.64;100.00;100130.17;1435648;90;21888;-89
2023/11/10 04:46:09;;;;;;;9.73;5.07;;;;;;;1.56;100.00;100131.98;1432431;91;21933;-89
2023/11/10 04:48:35;;;;;;;10.37;6.00;;;;;;;1.56;100.00;100131.98;1437289;91;22027;-88
2023/11/10 04:51:03;;;;;;;10.80;6.00;;;;;;;1.49;100.00;100131.98;1431781;91;22584;-85
2023/11/10 04:53:29;;;;;;;8.70;6.27;;;;;;;1.45;100.00;100136.56;1436091;91;21827;-88
2023/11/10 04:55:55;;;;;;;10.60;5.60;;;;;;;1.46;100.00;100129.11;1412779;91;22129;-88
2023/11/10 04:58:22;;;;;;;10.70;5.33;;;;;;;1.46;100.00;100129.11;1435200;91;21687;-85
2023/11/10 05:00:49;;;;;;;17.13;4.87;;;;;;;1.48;100.00;100131.63;1437794;91;21857;-87
2023/11/10 05:03:18;;;;;;;8.37;4.57;;;;;;;1.52;100.00;100131.80;1434132;90;22832;-85
2023/11/10 05:05:45;;;;;;;10.00;5.33;;;;;;;1.52;100.00;100126.10;1430564;89;21896;-87
2023/11/10 05:08:11;;;;;;;12.03;6.23;;;;;;;1.55;100.00;100110.29;1431985;91;22027;-83
2023/11/10 05:10:38;;;;;;;8.37;4.80;;;;;;;1.55;100.00;100110.29;1433604;91;21685;-88
2023/11/10 05:13:05;;;;;;;9.97;6.10;;;;;;;1.50;100.00;100110.21;1443726;91;21906;-88
2023/11/10 05:15:31;;;;;;;9.37;4.57;;;;;;;1.50;100.00;100110.21;1434550;90;21778;-86
2023/11/10 05:17:58;;;;;;;11.10;6.07;;;;;;;1.47;100.00;100113.02;1444745;91;21617;-86
2023/11/10 05:20:24;;;;;;;9.97;5.27;;;;;;;1.44;100.00;100110.58;1438871;90;21643;-85
2023/11/10 05:22:51;;;;;;;10.67;6.63;;;;;;;1.42;100.00;100108.55;1439884;91;21762;-89
2023/11/10 05:25:18;;;;;;;13.20;5.83;;;;;;;1.47;100.00;100111.71;1435747;91;21909;-85
2023/11/10 05:27:44;;;;;;;9.20;6.07;;;;;;;1.47;100.00;100111.71;1431804;90;22109;-85
2023/11/10 05:30:12;;;;;;;9.77;6.53;;;;;;;1.50;100.00;100114.13;1443222;90;21954;-83
2023/11/10 05:32:38;;;;;;;10.50;5.37;;;;;;;1.54;100.00;100112.51;1435827;91;21936;-84
2023/11/10 05:35:08;;;;;;;8.87;5.83;;;;;;;1.56;100.00;100110.64;1438690;90;21890;-85
2023/11/10 05:37:34;;;;;;;7.70;4.83;;;;;;;1.57;100.00;100110.17;1442106;90;21871;-84
2023/11/10 05:40:01;;;;;;;10.13;5.37;;;;;;;1.55;100.00;100112.03;1425424;91;21824;-88
2023/11/10 05:42:27;;;;;;;11.23;6.27;;;;;;;1.49;100.00;100117.64;1434742;91;22741;-88
2023/11/10 05:44:54;;;;;;;9.23;6.40;;;;;;;1.49;100.00;100117.64;1436028;91;22867;-87
2023/11/10 05:47:20;;;;;;;15.97;7.93;;;;;;;1.45;100.00;100120.92;1432435;91;22722;-84
2023/11/10 05:49:46;;;;;;;16.37;8.27;;;;;;;1.43;100.00;100114.95;1441259;91;21783;-86
2023/11/10 05:52:13;;;;;;;18.93;9.57;;;;;;;1.43;100.00;100114.95;1430454;91;21750;-86
2023/11/10 05:54:40;;;;;;;18.40;10.87;;;;;;;1.48;100.00;100115.98;1436251;91;21835;-86
2023/11/10 05:57:07;;;;;;;19.93;10.97;;;;;;;1.52;100.00;100110.92;1440603;91;21904;-86
2023/11/10 05:59:33;;;;;;;21.03;10.10;;;;;;;1.50;100.00;100102.38;1440199;91;21910;-84
2023/11/10 06:02:00;;;;;;;21.77;10.57;;;;;;;1.56;100.00;100114.56;1430326;91;21909;-86
2023/11/10 06:04:26;;;;;;;21.23;11.60;;;;;;;1.51;100.00;100110.57;1440602;91;22294;-85
2023/11/10 06:06:53;;;;;;;21.37;11.77;;;;;;;1.55;100.00;100111.59;1433985;90;21919;-86
2023/11/10 06:09:21;;;;;;;19.40;11.70;;;;;;;1.58;100.00;100114.45;1435003;91;21741;-86
2023/11/10 06:11:47;;;;;;;26.07;11.43;;;;;;;1.57;100.00;100109.70;1439928;90;23033;-86
2023/11/10 06:14:13;;;;;;;22.27;11.50;;;;;;;1.59;100.00;100113.53;1412299;91;22584;-85
2023/11/10 06:16:40;;;;;;;24.43;10.50;;;;;;;1.64;100.00;100107.56;1426502;91;21903;-85
2023/11/10 06:19:10;;;;;;;17.13;9.77;;;;;;;1.71;100.00;100103.61;1431949;90;21972;-81
2023/11/10 06:21:36;;;;;;;17.33;10.03;;;;;;;1.92;100.00;100103.97;1437751;91;22763;-86
2023/11/10 06:24:03;;;;;;;25.23;10.47;;;;;;;1.99;100.00;100103.12;1441801;91;22894;-88
2023/11/10 06:26:30;;;;;;;18.67;10.93;;;;;;;1.99;100.00;100103.12;1435215;90;22935;-87
2023/11/10 06:28:58;;;;;;;19.30;12.83;;;;;;;2.02;100.00;100091.17;1435693;91;22332;-87
2023/11/10 06:31:25;;;;;;;28.53;13.87;;;;;;;2.02;100.00;100091.17;1426902;90;22824;-86
2023/11/10 06:33:51;;;;;;;24.60;12.47;;;;;;;2.03;100.00;100098.06;1435576;91;21847;-87
2023/11/10 06:36:20;;;;;;;24.57;13.80;;;;;;;2.03;100.00;100098.06;1433380;91;21878;-88
2023/11/10 06:38:47;;;;;;;19.80;14.40;;;;;;;2.04;100.00;100103.64;1438409;91;22191;-89
2023/11/10 06:41:14;;;;;;;23.93;15.17;;;;;;;2.07;100.00;100106.52;1432663;91;22017;-89
2023/11/10 06:43:44;;;;;;;21.97;13.93;;;;;;;2.20;100.00;100100.39;1430417;91;22125;-86
2023/11/10 06:46:11;;;;;;;21.27;13.00;;;;;;;2.20;100.00;100100.39;1431093;91;22105;-88
2023/11/10 06:48:37;;;;;;;26.60;15.00;;;;;;;2.29;100.00;100101.55;1435040;91;23674;-88
2023/11/10 06:51:04;;;;;;;30.00;16.97;;;;;;;2.38;100.00;100102.70;1438666;91;22255;-89
2023/11/10 06:53:30;;;;;;;27.60;15.83;;;;;;;2.48;100.00;100099.86;1434946;91;22934;-87
2023/11/10 06:55:57;;;;;;;33.43;17.70;;;;;;;2.57;100.00;100096.61;1440753;91;22094;-90
2023/11/10 06:58:41;;;;;;;32.83;21.07;;;;;;;2.65;100.00;100096.09;1436489;90;22250;-84
2023/11/10 07:01:09;;;;;;;45.27;21.43;;;;;;;2.69;100.00;100086.62;1432266;91;22154;-89
2023/11/10 07:03:36;;;;;;;34.40;18.70;;;;;;;2.77;100.00;100095.72;1433938;90;23103;-86
2023/11/10 07:06:04;;;;;;;35.70;18.90;;;;;;;2.81;100.00;100084.94;1430492;91;23023;-88
2023/11/10 07:08:32;;;;;;;30.53;17.77;;;;;;;2.91;100.00;100094.30;1444765;91;22327;-86
2023/11/10 07:11:01;;;;;;;25.03;15.50;;;;;;;3.01;100.00;100088.77;1436749;90;22121;-85
2023/11/10 07:13:27;;;;;;;26.40;15.10;;;;;;;3.08;100.00;100091.34;1441371;90;22314;-86
2023/11/10 07:15:54;;;;;;;26.70;15.00;;;;;;;3.15;100.00;100093.04;1436041;91;22056;-85
2023/11/10 07:18:23;;;;;;;25.03;15.23;;;;;;;3.35;100.00;100086.39;1442958;90;21629;-87
2023/11/10 07:20:49;;;;;;;19.70;13.37;;;;;;;3.35;100.00;100055.00;1429589;91;21436;-84
2023/11/10 07:23:15;;;;;;;26.90;14.07;;;;;;;3.71;100.00;100082.05;1417897;91;21450;-86
2023/11/10 07:25:42;;;;;;;28.07;13.40;;;;;;;3.71;100.00;100082.05;1435886;91;22441;-85
2023/11/10 07:28:09;;;;;;;29.53;12.93;;;;;;;3.84;100.00;100081.52;1435652;91;21442;-85
2023/11/10 07:30:37;;;;;;;24.47;12.90;;;;;;;3.99;100.00;100080.38;1437134;91;21310;-86
2023/11/10 07:33:03;;;;;;;26.17;12.30;;;;;;;4.11;100.00;100074.70;1432377;91;21584;-86
2023/11/10 07:35:29;;;;;;;18.53;11.50;;;;;;;4.22;100.00;100082.59;1434935;91;22315;-85
2023/11/10 07:37:56;;;;;;;22.47;12.60;;;;;;;4.39;100.00;100077.39;1435070;91;21458;-85
2023/11/10 07:40:22;;;;;;;17.73;9.27;;;;;;;4.59;100.00;100076.36;1431066;90;21592;-85
2023/11/10 07:42:50;;;;;;;10.70;7.20;;;;;;;4.73;100.00;100074.81;1436279;91;22265;-83
2023/11/10 07:45:17;;;;;;;10.60;5.77;;;;;;;4.90;100.00;100076.96;1436744;90;21584;-89
2023/11/10 07:47:46;;;;;;;8.60;5.50;;;;;;;5.07;100.00;100076.12;1431414;91;22264;-89
2023/11/10 07:50:14;;;;;;;9.77;6.17;;;;;;;5.27;100.00;100064.88;1443695;91;21422;-89
2023/11/10 07:52:42;;;;;;;9.53;6.10;;;;;;;5.52;100.00;100072.08;1427753;90;21362;-88
2023/11/10 07:55:10;;;;;;;10.30;7.27;;;;;;;5.78;100.00;100073.45;1417962;91;22427;-91
2023/11/10 07:57:36;;;;;;;14.60;7.97;;;;;;;6.02;100.00;100069.30;1440333;90;21807;-89
2023/11/10 08:00:08;;;;;;;13.60;8.03;;;;;;;6.24;100.00;100068.36;1426984;89;21726;-90
2023/11/10 08:02:35;;;;;;;16.70;8.23;;;;;;;6.43;100.00;100061.55;1437529;91;21451;-91
2023/11/10 08:05:05;;;;;;;10.43;5.87;;;;;;;6.62;100.00;100051.14;1432614;91;21386;-88
2023/11/10 08:07:32;;;;;;;10.70;6.45;;;;;;;6.81;100.00;100045.11;1430400;91;22471;-91
2023/11/10 08:10:02;;;;;;;9.07;5.70;;;;;;;7.03;100.00;100042.77;1429614;91;21451;-91
2023/11/10 08:12:29;;;;;;;14.33;5.97;;;;;;;7.14;100.00;100043.98;1430865;91;21450;-89
2023/11/10 08:14:56;;;;;;;10.43;5.37;;;;;;;7.22;100.00;100040.20;1441461;90;21513;-90
2023/11/10 08:17:23;;;;;;;11.47;6.43;;;;;;;7.28;100.00;100050.67;1431508;91;21487;-89
2023/11/10 08:19:50;;;;;;;16.20;8.20;;;;;;;7.28;100.00;100049.81;1437938;90;21572;-82
2023/11/10 08:22:16;;;;;;;16.93;8.77;;;;;;;7.27;100.00;100042.89;1433797;90;21413;-85
2023/11/10 08:24:43;;;;;;;13.37;7.17;;;;;;;7.25;100.00;100043.05;1428594;91;21765;-87
2023/11/10 08:27:10;;;;;;;13.77;8.00;;;;;;;7.24;100.00;100042.19;1430941;90;21477;-82
2023/11/10 08:29:36;;;;;;;14.47;8.10;;;;;;;7.29;100.00;100046.23;1434983;90;21609;-82
2023/11/10 08:32:03;;;;;;;13.27;7.03;;;;;;;7.36;100.00;100047.33;1432496;91;22412;-81
2023/11/10 08:34:30;;;;;;;17.90;6.23;;;;;;;7.49;100.00;100047.09;1434712;91;22445;-81
2023/11/10 08:36:57;;;;;;;13.43;6.67;;;;;;;7.60;100.00;100037.26;1432569;90;21472;-82
2023/11/10 08:39:23;;;;;;;6.47;5.13;;;;;;;7.72;100.00;100031.86;1430343;91;21451;-85
2023/11/10 08:41:50;;;;;;;9.23;5.50;;;;;;;7.86;100.00;100035.39;1436113;90;21466;-80
2023/11/10 08:44:23;;;;;;;10.30;5.20;;;;;;;7.96;100.00;100026.97;1431059;91;21371;-84
2023/11/10 08:46:50;;;;;;;9.23;5.57;;;;;;;8.03;100.00;100025.45;1431198;90;21385;-84
2023/11/10 08:49:17;;;;;;;6.80;4.57;;;;;;;8.09;100.00;100022.25;1431384;91;21459;-82
2023/11/10 08:51:44;;;;;;;9.43;4.97;;;;;;;8.14;100.00;100029.26;1361036;90;21452;-83
2023/11/10 08:54:10;;;;;;;5.97;4.70;;;;;;;8.18;100.00;100023.20;1368003;90;21266;-81
2023/11/10 08:56:37;;;;;;;7.03;5.40;;;;;;;8.22;100.00;100023.25;1362314;91;21582;-85
2023/11/10 08:59:03;;;;;;;10.73;5.60;;;;;;;8.27;100.00;100024.98;1362015;91;21326;-85
2023/11/10 09:01:31;;;;;;;11.00;4.63;;;;;;;8.32;100.00;100019.30;1367554;91;22176;-85
2023/11/10 09:03:57;;;;;;;9.10;5.50;;;;;;;8.35;100.00;100020.33;1360955;91;21326;-83
2023/11/10 09:06:24;;;;;;;12.23;5.00;;;;;;;8.37;100.00;100024.95;1362091;91;22139;-85
2023/11/10 09:08:50;;;;;;;9.87;5.10;;;;;;;8.37;100.00;100018.35;1367911;91;21445;-84
2023/11/10 09:11:16;;;;;;;18.87;5.77;;;;;;;8.42;100.00;100009.56;1362031;90;21275;-86
2023/11/10 09:13:43;;;;;;;11.60;6.73;;;;;;;8.49;100.00;100010.67;1362102;91;21259;-82
2023/11/10 09:16:09;;;;;;;11.53;5.70;;;;;;;8.58;100.00;100012.43;1368115;91;21451;-84
2023/11/10 09:18:36;;;;;;;10.40;5.00;;;;;;;8.64;100.00;100010.20;1361832;90;21289;-86
2023/11/10 09:21:07;;;;;;;9.13;5.40;;;;;;;8.69;100.00;100011.88;1362201;90;21267;-84
2023/11/10 09:23:34;;;;;;;13.68;5.72;;;;;;;8.74;100.00;100008.33;1348602;92;21340;-82
2023/11/10 09:26:03;;;;;;;9.57;5.03;;;;;;;8.75;100.00;100007.38;1360750;91;21223;-81
2023/11/10 09:28:31;;;;;;;8.27;4.73;;;;;;;8.78;100.00;99997.84;1359320;90;21496;-86
2023/11/10 09:30:59;;;;;;;9.33;5.23;;;;;;;8.84;100.00;99995.11;1506779;90;21325;-84
2023/11/10 09:33:25;;;;;;;13.43;5.87;;;;;;;8.83;100.00;99988.97;1365338;90;21422;-85
2023/11/10 09:35:51;;;;;;;14.87;6.57;;;;;;;8.83;100.00;99987.66;1362263;91;21501;-86
2023/11/10 09:38:21;;;;;;;11.77;6.50;;;;;;;8.85;100.00;99975.16;1367931;91;21370;-82
2023/11/10 09:40:47;;;;;;;14.17;6.80;;;;;;;8.85;100.00;99971.20;1359196;91;21408;-83
2023/11/10 09:43:15;;;;;;;10.07;5.60;;;;;;;8.83;100.00;99970.50;1361699;90;21436;-86
2023/11/10 09:45:54;;;;;;;14.77;5.47;;;;;;;8.88;100.00;99963.47;1368525;91;21325;-87
2023/11/10 09:48:19;;;;;;;8.93;4.77;;;;;;;8.92;100.00;99960.87;1430927;91;21413;-85
2023/11/10 09:50:50;;;;;;;9.67;4.97;;;;;;;8.97;100.00;99948.89;1430087;90;21325;-82
2023/11/10 09:53:18;;;;;;;10.00;5.33;;;;;;;8.99;100.00;99950.08;1433134;90;21650;-86
2023/11/10 09:55:49;;;;;;;10.57;5.23;;;;;;;9.06;100.00;99949.80;1428440;91;21392;-85
2023/11/10 09:58:17;;;;;;;8.68;5.03;;;;;;;9.13;100.00;99950.05;1433968;90;22346;-82
2023/11/10 10:00:44;;;;;;;9.20;5.13;;;;;;;9.15;100.00;99948.08;1417234;91;21599;-85
2023/11/10 10:03:12;;;;;;;16.47;5.40;;;;;;;9.16;100.00;99941.83;1433789;91;21503;-84
2023/11/10 10:05:38;;;;;;;9.17;5.87;;;;;;;9.18;100.00;99939.87;1430187;90;21495;-82
2023/11/10 10:08:04;;;;;;;11.83;5.17;;;;;;;9.16;100.00;99939.19;1431041;90;21391;-83
2023/11/10 10:10:31;;;;;;;10.23;4.33;;;;;;;9.13;100.00;99940.81;1440090;91;21459;-85
2023/11/10 10:12:57;;;;;;;8.23;5.00;;;;;;;9.07;100.00;99933.50;1432887;91;22110;-84
2023/11/10 10:15:29;;;;;;;15.07;5.53;;;;;;;8.96;100.00;99931.41;1428122;90;21533;-83
2023/11/10 10:18:05;;;;;;;6.67;4.33;;;;;;;8.92;100.00;99931.38;1434136;90;21355;-82
2023/11/10 10:20:31;;;;;;;9.67;4.87;;;;;;;8.88;100.00;99927.84;1415884;90;21436;-84
2023/11/10 10:22:58;;;;;;;6.53;4.77;;;;;;;8.81;100.00;99924.98;1434060;91;21414;-82
2023/11/10 10:25:24;;;;;;;8.10;4.90;;;;;;;8.76;100.00;99914.03;1435743;90;21399;-84
2023/11/10 10:27:50;;;;;;;9.97;5.23;;;;;;;8.72;100.00;99908.73;1434909;90;21318;-82
2023/11/10 10:30:20;;;;;;;30.03;13.93;;;;;;;8.71;100.00;99907.88;1441146;90;21466;-81
2023/11/10 10:32:47;;;;;;;32.10;13.90;;;;;;;8.72;100.00;99902.13;1435698;91;21400;-82
2023/11/10 10:35:14;;;;;;;18.43;8.23;;;;;;;8.75;100.00;99904.47;1432748;90;21444;-81
2023/11/10 10:37:42;;;;;;;15.00;6.53;;;;;;;8.77;100.00;99899.85;1433722;91;21612;-84
2023/11/10 10:40:11;;;;;;;9.37;5.83;;;;;;;8.76;100.00;99888.47;1441923;91;21517;-83
2023/11/10 10:42:44;;;;;;;10.30;5.77;;;;;;;8.75;100.00;99891.28;1434040;90;21481;-83
2023/11/10 10:45:12;;;;;;;13.37;6.87;;;;;;;8.74;100.00;99890.42;1430285;90;22241;-85
2023/11/10 10:47:40;;;;;;;16.23;7.20;;;;;;;8.73;100.00;99890.59;1429962;90;21347;-79
2023/11/10 10:50:11;;;;;;;9.57;6.97;;;;;;;8.73;100.00;99893.23;1506524;90;22457;-76
2023/11/10 10:52:37;;;;;;;10.45;5.55;;;;;;;8.67;100.00;99893.83;1470291;91;21458;-77
2023/11/10 10:55:06;;;;;;;11.90;7.63;;;;;;;8.69;100.00;99883.93;1361891;90;21356;-76
2023/11/10 10:57:39;;;;;;;9.60;7.20;;;;;;;8.69;100.00;99887.89;1511803;90;21288;-76
2023/11/10 11:00:14;;;;;;;11.30;7.27;;;;;;;8.72;100.00;99885.80;1399677;90;22213;-76
2023/11/10 11:02:41;;;;;;;9.90;5.80;;;;;;;8.69;100.00;99877.34;1365434;91;22273;-76
2023/11/10 11:05:43;;;;;;;10.00;5.30;;;;;;;8.70;100.00;99868.46;1358889;90;21311;-74
2023/11/10 11:08:32;;;;;;;9.23;4.90;;;;;;;8.76;100.00;99867.37;1344779;92;21312;-76
2023/11/10 11:11:16;;;;;;;10.23;5.07;;;;;;;8.85;100.00;99858.22;1449597;92;21400;-76
2023/11/10 11:13:53;;;;;;;11.67;5.10;;;;;;;8.91;100.00;99848.37;1397583;91;21325;-76
2023/11/10 11:17:10;;;;;;;10.20;5.57;;;;;;;8.99;100.00;99848.45;1513848;91;21646;-75
2023/11/10 11:19:38;;;;;;;9.50;5.87;;;;;;;9.03;100.00;99832.17;1361977;91;21470;-74
2023/11/10 11:22:07;;;;;;;9.13;5.67;;;;;;;9.09;100.00;99835.16;1365212;90;21222;-74
2023/11/10 11:24:34;;;;;;;19.77;5.53;;;;;;;9.15;100.00;99825.31;1514230;90;21351;-73
2023/11/10 11:27:07;;;;;;;8.97;5.27;;;;;;;9.16;100.00;99821.70;1362525;91;21274;-80